Time;durP1;ratioP1;P1;durP2;ratioP2;P2;SDS_P1;SDS_P2;PMS_P1;PMS_P2;Temp;Humidity;BMP_temperature;BMP_pressure;BME280_temperature;BME280_humidity;BME280_pressure;Samples;Min_cycle;Max_cycle;Signal;HPM_P1;HPM_P2
2022/05/08 00:01:47;;;;;;;13.60;5.53;;;;;;;20.17;47.12;102823.88;5028372;28;20032;-69
2022/05/08 00:04:12;;;;;;;14.03;5.47;;;;;;;19.53;49.26;102819.69;5011568;28;20037;-69
2022/05/08 00:06:37;;;;;;;10.48;5.65;;;;;;;20.28;46.50;102818.38;5029996;28;20030;-69
2022/05/08 00:09:03;;;;;;;13.50;5.20;;;;;;;19.84;47.32;102836.00;5027984;28;20049;-70
2022/05/08 00:11:28;;;;;;;9.50;4.47;;;;;;;20.30;45.74;102829.81;5029022;28;20048;-69
2022/05/08 00:13:54;;;;;;;11.43;4.97;;;;;;;18.65;48.83;102840.31;5031000;28;20101;-69
2022/05/08 00:16:20;;;;;;;10.63;3.80;;;;;;;18.23;52.46;102827.56;5031746;28;20029;-69
2022/05/08 00:18:45;;;;;;;14.83;4.37;;;;;;;18.33;51.63;102827.44;5031773;28;20032;-69
2022/05/08 00:21:11;;;;;;;15.68;4.28;;;;;;;17.94;52.48;102836.66;5032637;28;20113;-70
2022/05/08 00:23:36;;;;;;;12.93;4.80;;;;;;;16.97;57.64;102818.81;5031451;28;20099;-69
2022/05/08 00:26:01;;;;;;;11.37;3.73;;;;;;;17.77;53.78;102827.97;5033277;28;20029;-69
2022/05/08 00:28:27;;;;;;;10.57;3.93;;;;;;;17.80;52.57;102828.81;5032421;28;20575;-69
2022/05/08 00:30:52;;;;;;;14.53;6.03;;;;;;;17.30;54.38;102830.06;5030814;28;20114;-69
2022/05/08 00:33:18;;;;;;;11.10;3.80;;;;;;;16.84;57.17;102827.66;5032263;28;20024;-69
2022/05/08 00:35:43;;;;;;;16.30;4.80;;;;;;;17.55;53.43;102827.25;5033014;28;20441;-70
2022/05/08 00:38:09;;;;;;;11.27;3.63;;;;;;;16.60;57.88;102829.50;5032736;28;20071;-70
2022/05/08 00:40:35;;;;;;;13.53;4.53;;;;;;;16.94;57.29;102829.41;5031572;28;20485;-69
2022/05/08 00:43:26;;;;;;;12.50;4.03;;;;;;;17.35;54.06;102830.94;5031750;28;20037;-70
2022/05/08 00:45:52;;;;;;;18.63;4.53;;;;;;;17.19;55.46;102834.56;5030677;28;20029;-70
2022/05/08 00:48:18;;;;;;;17.57;3.27;;;;;;;16.33;58.37;102836.63;5033255;28;20026;-69
2022/05/08 00:50:44;;;;;;;15.50;4.30;;;;;;;17.04;56.47;102820.53;5031066;28;20504;-69
2022/05/08 00:53:10;;;;;;;10.43;5.10;;;;;;;17.24;54.23;102827.47;5032417;28;20025;-69
2022/05/08 00:55:35;;;;;;;4.47;2.97;;;;;;;16.55;56.64;102837.44;5031503;28;20060;-69
2022/05/08 00:58:02;;;;;;;11.33;3.80;;;;;;;17.22;55.55;102830.13;5031447;28;20488;-69
2022/05/08 01:00:28;;;;;;;14.57;4.43;;;;;;;17.51;53.93;102829.03;5030994;28;20052;-70
2022/05/08 01:02:57;;;;;;;14.50;4.13;;;;;;;17.51;52.82;102825.53;5031006;28;20018;-69
2022/05/08 01:05:23;;;;;;;9.30;4.40;;;;;;;17.80;52.65;102822.63;5032055;28;20059;-70
2022/05/08 01:07:49;;;;;;;11.90;4.40;;;;;;;17.03;54.76;102824.06;5032332;28;20025;-70
2022/05/08 01:10:16;;;;;;;14.33;4.43;;;;;;;17.47;54.50;102824.66;5032819;28;20566;-70
2022/05/08 01:12:44;;;;;;;13.30;4.30;;;;;;;17.59;52.06;102823.69;5030324;28;20124;-69
2022/05/08 01:15:19;;;;;;;14.37;4.20;;;;;;;18.32;50.79;102823.94;5032753;28;20024;-70
2022/05/08 01:17:45;;;;;;;11.97;4.43;;;;;;;18.51;49.29;102816.66;5030541;28;20120;-69
2022/05/08 01:20:11;;;;;;;11.73;4.40;;;;;;;17.56;52.44;102824.59;5030615;28;20512;-70
2022/05/08 01:22:37;;;;;;;10.57;3.97;;;;;;;17.80;49.93;102825.28;5031008;28;20029;-69
2022/05/08 01:25:04;;;;;;;11.43;4.10;;;;;;;17.61;51.68;102827.19;5032093;28;20030;-69
2022/05/08 01:27:32;;;;;;;11.17;4.13;;;;;;;17.42;52.68;102822.06;5031441;28;20021;-71
2022/05/08 01:29:57;;;;;;;13.90;3.77;;;;;;;17.36;53.27;102827.38;5032205;28;20365;-70
2022/05/08 01:32:23;;;;;;;13.60;4.20;;;;;;;17.89;51.38;102821.69;5031311;28;20017;-70
2022/05/08 01:34:48;;;;;;;12.50;4.33;;;;;;;16.69;54.28;102834.78;5029744;28;20065;-69
2022/05/08 01:37:13;;;;;;;18.20;5.57;;;;;;;17.35;53.13;102825.66;5032120;28;20080;-70
2022/05/08 01:39:39;;;;;;;17.57;4.53;;;;;;;17.32;51.85;102835.34;5030472;28;20100;-69
2022/05/08 01:42:06;;;;;;;12.97;4.07;;;;;;;16.83;53.59;102826.78;5030073;28;20046;-70
2022/05/08 01:44:32;;;;;;;15.07;4.20;;;;;;;17.83;50.81;102824.38;5030748;28;20037;-69
2022/05/08 01:49:41;;;;;;;17.30;4.47;;;;;;;16.71;51.99;102835.63;5030847;28;20476;-70
2022/05/08 01:52:07;;;;;;;13.37;3.80;;;;;;;17.21;50.98;102832.78;5032189;28;20018;-69
2022/05/08 01:54:33;;;;;;;14.30;4.57;;;;;;;17.55;50.37;102833.41;5031160;28;20564;-69
2022/05/08 01:56:59;;;;;;;12.70;4.83;;;;;;;17.34;50.13;102834.47;5031766;28;20104;-70
2022/05/08 01:59:24;;;;;;;12.33;4.73;;;;;;;17.27;51.56;102838.03;5030769;28;20074;-70
2022/05/08 02:01:50;;;;;;;7.80;4.73;;;;;;;17.22;51.93;102839.81;5029237;28;20393;-70
2022/05/08 02:04:15;;;;;;;14.20;5.20;;;;;;;17.06;51.75;102839.91;5030382;28;20109;-70
2022/05/08 02:06:45;;;;;;;12.37;4.60;;;;;;;17.41;51.38;102844.09;5029931;28;20037;-70
2022/05/08 02:09:10;;;;;;;15.37;5.80;;;;;;;16.81;53.05;102854.09;5031087;28;20032;-70
2022/05/08 02:11:36;;;;;;;14.73;5.43;;;;;;;17.13;52.13;102852.19;5030096;28;20029;-69
2022/05/08 02:14:02;;;;;;;13.00;4.60;;;;;;;16.72;53.92;102861.16;5029974;28;20573;-69
2022/05/08 02:16:29;;;;;;;18.83;5.30;;;;;;;16.65;54.71;102840.94;5029669;28;20051;-69
2022/05/08 02:18:55;;;;;;;10.87;5.17;;;;;;;16.30;54.82;102851.59;5031299;28;20112;-70
2022/05/08 02:21:21;;;;;;;14.83;5.23;;;;;;;16.15;55.12;102850.72;5030296;28;20541;-70
2022/05/08 02:23:46;;;;;;;16.53;4.20;;;;;;;15.53;56.74;102847.19;5028806;28;20079;-69
2022/05/08 02:26:12;;;;;;;12.40;3.13;;;;;;;15.84;55.58;102852.50;5031388;28;20108;-69
2022/05/08 02:28:41;;;;;;;15.93;3.80;;;;;;;15.88;54.46;102839.34;5031176;28;20026;-69
2022/05/08 02:31:06;;;;;;;13.53;3.13;;;;;;;15.70;55.62;102834.91;5029499;28;20052;-69
2022/05/08 02:33:35;;;;;;;12.77;2.60;;;;;;;17.54;47.18;102836.06;5029857;28;20474;-69
2022/05/08 02:36:00;;;;;;;10.00;3.00;;;;;;;16.79;49.64;102847.03;5029085;28;20013;-69
2022/05/08 02:38:25;;;;;;;12.90;3.03;;;;;;;17.66;45.72;102843.91;5030597;28;20356;-70
2022/05/08 02:40:51;;;;;;;16.50;2.67;;;;;;;17.80;45.77;102849.09;5029326;28;20040;-70
2022/05/08 02:43:21;;;;;;;13.30;2.73;;;;;;;18.35;43.53;102853.00;5029591;28;20030;-69
2022/05/08 02:45:47;;;;;;;12.50;3.00;;;;;;;18.36;43.51;102854.75;5028619;28;20029;-69
2022/05/08 02:48:13;;;;;;;15.93;3.17;;;;;;;17.77;44.16;102860.56;5029735;28;20021;-70
2022/05/08 02:50:39;;;;;;;20.83;2.93;;;;;;;18.80;42.95;102861.31;5030210;28;20035;-69
2022/05/08 02:53:04;;;;;;;17.87;2.37;;;;;;;18.86;41.28;102859.47;5046204;28;20046;-70
2022/05/08 03:00:59;;;;;;;15.93;2.63;;;;;;;17.53;44.24;102868.69;5030790;28;20091;-69
2022/05/08 03:03:25;;;;;;;15.13;2.40;;;;;;;18.79;41.41;102864.88;5029561;28;20028;-69
2022/05/08 03:05:51;;;;;;;13.77;2.33;;;;;;;18.84;41.24;102870.09;5028282;28;20026;-69
2022/05/08 03:08:17;;;;;;;10.90;3.13;;;;;;;18.61;42.40;102865.09;5030566;28;20056;-69
2022/05/08 03:13:29;;;;;;;14.90;2.17;;;;;;;17.08;44.50;102869.81;5030390;28;20032;-69
2022/05/08 03:15:55;;;;;;;12.27;3.30;;;;;;;18.04;43.49;102874.50;5029136;28;20025;-69
2022/05/08 03:18:20;;;;;;;15.43;2.40;;;;;;;17.51;44.43;102878.41;5029368;28;20027;-69
2022/05/08 03:20:46;;;;;;;20.57;2.23;;;;;;;17.46;43.99;102876.66;5027793;28;20033;-69
2022/05/08 03:23:11;;;;;;;17.90;2.50;;;;;;;18.92;41.03;102870.06;5029344;28;20104;-69
2022/05/08 03:25:37;;;;;;;17.17;2.80;;;;;;;18.03;43.23;102871.88;5030300;28;20025;-69
2022/05/08 03:28:03;;;;;;;19.67;2.30;;;;;;;17.73;43.31;102880.00;5028308;28;20030;-69
2022/05/08 03:30:28;;;;;;;16.00;2.77;;;;;;;18.08;42.68;102886.81;5030437;28;20021;-69
2022/05/08 03:32:58;;;;;;;12.93;2.60;;;;;;;17.23;44.88;102879.44;5029161;28;20097;-69
2022/05/08 03:35:24;;;;;;;13.57;2.93;;;;;;;17.40;43.35;102883.75;5029427;28;20100;-69
2022/05/08 03:37:49;;;;;;;24.80;4.10;;;;;;;17.76;43.36;102879.09;5028584;28;20436;-69
2022/05/08 03:40:15;;;;;;;8.57;1.80;;;;;;;18.23;41.78;102880.50;5028483;28;20510;-68
2022/05/08 03:42:41;;;;;;;12.13;2.57;;;;;;;18.36;41.65;102883.88;5028129;28;20044;-69
2022/05/08 03:45:07;;;;;;;17.53;3.63;;;;;;;17.79;42.16;102884.34;5029203;28;20059;-69
2022/05/08 03:47:33;;;;;;;16.93;2.50;;;;;;;16.72;43.96;102890.19;5028099;28;20485;-68
2022/05/08 03:49:58;;;;;;;13.00;2.50;;;;;;;15.05;49.57;102892.72;5033666;28;20029;-68
2022/05/08 03:52:23;;;;;;;16.83;3.50;;;;;;;16.64;45.58;102891.97;5033036;28;20024;-69
2022/05/08 03:54:49;;;;;;;8.93;2.13;;;;;;;17.62;43.34;102893.28;5031375;28;20029;-68
2022/05/08 03:57:14;;;;;;;9.97;2.20;;;;;;;18.38;41.31;102881.22;5033066;28;20028;-69
2022/05/08 03:59:39;;;;;;;20.20;2.57;;;;;;;17.38;43.26;102893.44;5033586;28;20035;-68
2022/05/08 04:02:05;;;;;;;16.43;2.80;;;;;;;18.12;42.12;102893.81;5033499;28;20504;-68
2022/05/08 04:04:30;;;;;;;15.23;3.40;;;;;;;18.81;40.92;102899.28;5033633;28;20354;-69
2022/05/08 04:06:56;;;;;;;14.10;2.50;;;;;;;18.26;41.97;102901.63;5049430;28;20067;-68
2022/05/08 04:09:21;;;;;;;14.93;3.10;;;;;;;17.62;42.51;102897.72;5031982;28;20029;-69
2022/05/08 04:11:46;;;;;;;9.27;2.67;;;;;;;17.68;43.27;102897.69;5048682;28;20025;-69
2022/05/08 04:14:12;;;;;;;15.80;2.50;;;;;;;17.63;43.51;102899.47;5033794;28;20018;-69
2022/05/08 04:16:38;;;;;;;21.40;2.90;;;;;;;17.20;43.37;102912.94;5031609;28;20022;-69
2022/05/08 04:19:03;;;;;;;15.80;3.50;;;;;;;17.64;43.36;102902.09;5033508;28;20041;-69
2022/05/08 04:21:29;;;;;;;13.10;2.57;;;;;;;17.91;43.07;102899.25;5032567;28;20053;-68
2022/05/08 04:26:38;;;;;;;9.03;1.90;;;;;;;17.33;43.47;102906.69;5032540;28;20095;-68
2022/05/08 04:29:04;;;;;;;14.57;3.13;;;;;;;16.92;43.97;102915.69;5032432;28;20041;-69
2022/05/08 04:31:29;;;;;;;20.60;3.40;;;;;;;16.88;44.67;102908.63;5047983;28;20424;-69
2022/05/08 04:33:55;;;;;;;15.97;3.47;;;;;;;17.73;43.50;102911.72;5032089;28;20029;-69
2022/05/08 04:36:20;;;;;;;15.70;2.90;;;;;;;17.29;43.72;102923.47;5031647;28;20029;-69
2022/05/08 04:38:46;;;;;;;11.53;3.77;;;;;;;17.25;44.11;102929.66;5031656;28;20047;-69
2022/05/08 04:41:11;;;;;;;15.30;2.90;;;;;;;17.79;43.09;102910.81;5033535;28;20413;-69
2022/05/08 04:43:37;;;;;;;23.47;2.93;;;;;;;17.78;42.19;102923.16;5031234;28;20100;-69
2022/05/08 04:46:03;;;;;;;16.27;2.50;;;;;;;18.69;40.98;102923.28;5032025;28;20021;-69
2022/05/08 04:48:28;;;;;;;14.10;3.57;;;;;;;17.84;42.47;102930.16;5031923;28;20025;-69
2022/05/08 04:50:54;;;;;;;11.57;2.20;;;;;;;18.31;41.54;102925.41;5030466;28;20036;-69
2022/05/08 04:53:20;;;;;;;15.90;2.77;;;;;;;17.43;43.47;102937.50;5033276;28;20415;-69
2022/05/08 04:55:45;;;;;;;17.17;2.80;;;;;;;17.36;43.45;102942.81;5032558;28;20482;-69
2022/05/08 04:58:10;;;;;;;16.27;2.80;;;;;;;18.10;41.96;102932.63;5047619;28;20021;-69
2022/05/08 05:00:36;;;;;;;19.13;2.40;;;;;;;17.71;42.05;102928.50;5032327;28;20026;-69
2022/05/08 05:03:02;;;;;;;16.33;2.50;;;;;;;18.01;42.17;102938.03;5031374;28;20477;-69
2022/05/08 05:05:27;;;;;;;19.23;2.67;;;;;;;17.93;41.85;102934.56;5031088;28;20017;-69
2022/05/08 05:07:53;;;;;;;12.60;2.13;;;;;;;18.69;40.41;102929.44;5031035;28;20362;-69
2022/05/08 05:10:19;;;;;;;15.30;2.87;;;;;;;17.57;41.86;102936.50;5033215;28;20029;-68
2022/05/08 05:12:44;;;;;;;21.87;3.40;;;;;;;18.13;41.72;102932.63;5046993;28;20018;-69
2022/05/08 05:15:11;;;;;;;14.63;2.50;;;;;;;17.62;42.68;102940.00;5033128;28;20424;-69
2022/05/08 05:17:37;;;;;;;11.70;3.03;;;;;;;18.68;40.83;102946.22;5031337;28;20614;-69
2022/05/08 05:20:06;;;;;;;20.77;2.40;;;;;;;18.08;41.75;102944.13;5047252;28;20041;-69
2022/05/08 05:22:31;;;;;;;17.10;2.70;;;;;;;18.65;40.81;102947.13;5034118;28;20029;-68
2022/05/08 05:24:57;;;;;;;17.67;3.20;;;;;;;18.36;40.30;102949.19;5047818;28;20025;-69
2022/05/08 05:27:23;;;;;;;19.87;3.43;;;;;;;19.43;39.09;102952.41;5030897;28;20026;-69
2022/05/08 05:29:49;;;;;;;17.37;2.63;;;;;;;18.50;40.11;102951.72;5030598;28;20017;-69
2022/05/08 05:32:14;;;;;;;10.80;2.07;;;;;;;19.24;38.89;102956.22;5032436;28;20029;-69
2022/05/08 05:34:40;;;;;;;10.17;2.97;;;;;;;18.86;39.44;102960.16;5030090;28;20385;-68
2022/05/08 05:37:06;;;;;;;8.37;2.20;;;;;;;18.70;39.47;102957.69;5032645;28;20029;-68
2022/05/08 05:39:31;;;;;;;15.20;2.90;;;;;;;18.55;39.89;102963.16;5030104;28;20053;-69
2022/05/08 05:41:57;;;;;;;10.03;2.50;;;;;;;17.93;40.65;102961.88;5030658;28;20050;-69
2022/05/08 05:44:22;;;;;;;19.63;2.80;;;;;;;18.78;39.02;102963.78;5030789;28;20061;-69
2022/05/08 05:49:31;;;;;;;13.90;2.87;;;;;;;18.93;38.94;102967.16;5032360;28;20071;-69
2022/05/08 05:51:57;;;;;;;18.70;2.60;;;;;;;18.70;39.67;102970.94;5030809;28;20029;-69
2022/05/08 05:54:24;;;;;;;17.73;3.13;;;;;;;19.12;38.81;102968.72;5031512;28;20014;-69
2022/05/08 05:56:50;;;;;;;14.63;1.93;;;;;;;18.24;39.17;102958.13;5030312;28;20495;-69
2022/05/08 05:59:15;;;;;;;15.27;2.40;;;;;;;18.19;39.68;102970.50;5030830;28;20116;-69
2022/05/08 06:01:41;;;;;;;19.27;2.70;;;;;;;17.95;39.81;102969.81;5030819;28;20397;-70
2022/05/08 06:04:06;;;;;;;12.13;2.90;;;;;;;19.57;37.41;102972.56;5030699;28;20033;-69
2022/05/08 06:06:32;;;;;;;11.53;2.50;;;;;;;17.93;39.99;102971.59;5031686;28;20029;-68
2022/05/08 06:08:57;;;;;;;13.97;2.70;;;;;;;18.71;38.59;102978.00;5046093;28;20033;-68
2022/05/08 06:11:22;;;;;;;14.03;2.97;;;;;;;19.03;38.41;102974.13;5029795;28;20029;-68
2022/05/08 06:13:48;;;;;;;26.63;3.00;;;;;;;18.58;39.04;102976.34;5031270;28;20018;-69
2022/05/08 06:16:13;;;;;;;15.23;2.33;;;;;;;18.35;39.60;102984.50;5029806;28;20405;-69
2022/05/08 06:18:38;;;;;;;12.83;2.13;;;;;;;18.87;38.32;102978.69;5029904;28;20408;-69
2022/05/08 06:21:04;;;;;;;12.40;2.27;;;;;;;19.58;37.29;102987.59;5030347;28;20021;-69
2022/05/08 06:23:29;;;;;;;15.90;2.93;;;;;;;19.97;36.58;102985.28;5029568;28;20102;-68
2022/05/08 06:25:55;;;;;;;14.13;2.87;;;;;;;19.46;37.15;102989.50;5031374;28;20473;-68
2022/05/08 06:28:20;;;;;;;8.50;1.80;;;;;;;18.75;38.88;102990.31;5046930;28;20116;-69
2022/05/08 06:30:46;;;;;;;11.60;2.80;;;;;;;18.73;38.29;102992.09;5030060;28;20080;-69
2022/05/08 06:33:12;;;;;;;8.73;1.80;;;;;;;18.76;38.78;102992.03;5030218;28;20393;-69
2022/05/08 06:35:41;;;;;;;12.30;2.10;;;;;;;19.63;37.14;102999.88;5029966;28;20017;-69
2022/05/08 06:38:10;;;;;;;15.90;2.07;;;;;;;18.22;39.32;103010.19;5029789;28;20029;-69
2022/05/08 06:40:36;;;;;;;15.53;2.70;;;;;;;19.52;37.00;102999.13;5029378;28;20114;-69
2022/05/08 06:43:01;;;;;;;12.40;3.93;;;;;;;19.63;36.85;102997.25;5029084;28;20199;-68
2022/05/08 06:45:26;;;;;;;12.90;2.73;;;;;;;21.35;33.99;103002.28;5031364;28;20048;-68
2022/05/08 06:47:52;;;;;;;20.30;2.30;;;;;;;23.01;31.55;102996.47;5029233;28;20033;-68
2022/05/08 06:50:18;;;;;;;14.50;2.38;;;;;;;23.76;30.09;103001.38;5012739;28;20128;-68
2022/05/08 06:52:44;;;;;;;6.53;1.50;;;;;;;24.50;28.51;103006.97;5029176;28;20492;-69
2022/05/08 06:55:09;;;;;;;9.80;1.70;;;;;;;23.87;28.20;103012.56;5031071;28;20026;-69
2022/05/08 06:57:34;;;;;;;9.95;1.80;;;;;;;24.53;27.56;103012.19;5028854;28;20481;-68
2022/05/08 07:02:45;;;;;;;11.27;1.83;;;;;;;24.14;28.77;103007.31;5030794;28;20041;-69
2022/05/08 07:05:10;;;;;;;11.05;1.85;;;;;;;24.45;28.06;103008.94;5028824;28;20022;-69
2022/05/08 07:07:36;;;;;;;10.30;1.75;;;;;;;24.75;27.25;103007.94;5029424;28;20365;-68
2022/05/08 07:10:02;;;;;;;8.45;2.35;;;;;;;24.93;26.88;103017.09;5029517;28;20538;-68
2022/05/08 07:12:28;;;;;;;11.00;1.60;;;;;;;23.86;28.24;103010.84;5028552;28;20017;-68
2022/05/08 07:14:58;;;;;;;6.68;1.67;;;;;;;25.70;25.85;103004.34;5028751;28;20031;-68
2022/05/08 07:17:24;;;;;;;8.70;1.67;;;;;;;24.90;26.39;103018.94;5030882;28;20079;-68
2022/05/08 07:19:50;;;;;;;8.52;2.38;;;;;;;25.38;25.92;103013.66;5011646;28;20033;-68
2022/05/08 07:22:16;;;;;;;12.70;1.67;;;;;;;25.48;26.08;103007.00;5045538;28;20031;-68
2022/05/08 07:24:41;;;;;;;8.35;1.67;;;;;;;25.67;25.20;103008.97;5030066;28;20029;-68
2022/05/08 07:27:10;;;;;;;10.55;1.80;;;;;;;26.99;24.61;103001.66;5028557;28;20036;-68
2022/05/08 07:29:36;;;;;;;6.22;1.67;;;;;;;26.30;24.57;103014.44;5029189;28;20056;-68
2022/05/08 07:32:02;;;;;;;9.02;1.98;;;;;;;27.05;23.77;103017.44;5029405;28;20064;-68
2022/05/08 07:37:11;;;;;;;8.15;1.75;;;;;;;27.20;23.60;103022.13;5030739;28;20499;-69
2022/05/08 07:39:36;;;;;;;4.53;1.73;;;;;;;27.68;22.76;103024.41;5029644;28;20026;-69
2022/05/08 07:42:02;;;;;;;16.30;2.28;;;;;;;26.29;24.57;103022.56;5028778;28;20567;-68
2022/05/08 07:44:27;;;;;;;10.13;1.58;;;;;;;27.82;23.42;103029.97;5029132;28;20028;-70
2022/05/08 07:46:52;;;;;;;6.60;1.40;;;;;;;27.55;23.23;103025.00;5029294;28;20032;-70
2022/05/08 07:49:18;;;;;;;7.63;2.03;;;;;;;25.57;25.67;103036.09;5029377;28;20032;-70
2022/05/08 07:51:43;;;;;;;11.63;1.75;;;;;;;26.79;26.08;103032.94;5028711;28;20432;-70
2022/05/08 07:54:08;;;;;;;10.45;1.65;;;;;;;27.72;23.82;103031.34;5029730;28;20017;-69
2022/05/08 07:56:34;;;;;;;9.07;1.77;;;;;;;27.32;23.59;103030.56;5045531;28;20501;-69
2022/05/08 07:59:00;;;;;;;12.48;2.00;;;;;;;28.59;22.64;103031.50;5030337;28;20449;-69
2022/05/08 08:01:25;;;;;;;8.52;2.35;;;;;;;27.51;23.64;103036.81;5029777;28;20096;-69
2022/05/08 08:03:50;;;;;;;10.48;2.00;;;;;;;28.35;23.72;103038.16;5028148;28;20039;-70
2022/05/08 08:06:16;;;;;;;11.23;2.05;;;;;;;29.59;21.36;103037.84;5029105;28;20065;-69
2022/05/08 08:08:41;;;;;;;6.40;1.67;;;;;;;30.70;20.85;103038.59;5027574;28;20041;-70
2022/05/08 08:11:07;;;;;;;8.45;1.55;;;;;;;27.90;22.22;103043.91;5030826;28;20079;-70
2022/05/08 08:13:35;;;;;;;10.60;1.92;;;;;;;29.51;22.48;103046.38;5029985;28;20049;-70
2022/05/08 08:16:01;;;;;;;4.72;1.50;;;;;;;29.27;22.04;103044.06;5028138;28;20028;-69
2022/05/08 08:18:27;;;;;;;9.10;1.90;;;;;;;26.70;24.60;103044.06;5030294;28;20025;-69
2022/05/08 08:20:52;;;;;;;8.70;1.63;;;;;;;28.29;22.32;103030.38;5029770;28;20071;-69
2022/05/08 08:23:18;;;;;;;7.65;2.50;;;;;;;29.26;22.05;103036.97;5029293;28;20072;-70
2022/05/08 08:25:44;;;;;;;10.50;1.85;;;;;;;29.40;21.17;103033.50;5029640;28;20025;-69
2022/05/08 08:28:10;;;;;;;10.27;1.55;;;;;;;28.85;21.45;103037.34;5029108;28;20026;-69
2022/05/08 08:30:36;;;;;;;6.25;1.58;;;;;;;28.96;20.99;103027.81;5027915;28;20030;-69
2022/05/08 08:33:01;;;;;;;7.68;1.73;;;;;;;28.37;22.17;103034.44;5028572;28;20408;-69
2022/05/08 08:35:27;;;;;;;7.32;1.60;;;;;;;28.55;21.92;103035.28;5030394;28;20076;-69
2022/05/08 08:37:52;;;;;;;9.73;1.90;;;;;;;28.88;22.46;103028.22;5033237;28;20453;-70
2022/05/08 08:40:18;;;;;;;5.43;1.52;;;;;;;29.56;20.38;103033.47;5033710;28;20496;-70
2022/05/08 08:42:44;;;;;;;7.90;1.63;;;;;;;28.72;20.55;103030.88;5030744;28;20397;-69
2022/05/08 08:48:09;;;;;;;5.97;1.77;;;;;;;29.88;21.48;103038.91;5033217;28;20036;-70
2022/05/08 08:50:35;;;;;;;8.88;1.67;;;;;;;31.00;20.36;103026.84;5032480;28;20028;-69
2022/05/08 08:53:03;;;;;;;7.47;1.50;;;;;;;30.12;19.98;103030.34;5033161;28;20144;-69
2022/05/08 08:55:28;;;;;;;15.30;1.88;;;;;;;30.67;20.02;103028.00;5033203;28;20035;-69
2022/05/08 08:57:54;;;;;;;6.75;1.75;;;;;;;27.74;22.96;103034.84;5032147;28;20030;-69
2022/05/08 09:00:21;;;;;;;7.15;1.58;;;;;;;31.21;20.81;103028.19;5032256;28;20389;-69
2022/05/08 09:02:47;;;;;;;4.05;0.95;;;;;;;32.32;19.54;103021.91;5032814;28;20115;-69
2022/05/08 09:05:14;;;;;;;6.38;1.33;;;;;;;31.77;18.16;103027.34;5031270;28;20052;-69
2022/05/08 09:07:39;;;;;;;7.70;2.10;;;;;;;31.53;18.95;103025.28;5031605;28;20124;-70
2022/05/08 09:10:22;;;;;;;5.47;1.30;;;;;;;29.65;20.07;103033.91;5031865;28;20120;-70
2022/05/08 09:12:53;;;;;;;10.60;1.65;;;;;;;31.37;18.93;103027.25;5031939;28;20097;-69
2022/05/08 09:15:30;;;;;;;5.85;1.35;;;;;;;31.45;18.70;103027.59;5033226;28;20025;-69
2022/05/08 09:18:00;;;;;;;8.73;1.60;;;;;;;29.73;19.99;103034.34;5032350;28;20025;-69
2022/05/08 09:20:39;;;;;;;7.20;1.77;;;;;;;29.64;20.26;103038.44;5031954;28;20116;-69
2022/05/08 09:23:17;;;;;;;6.45;1.50;;;;;;;29.82;20.63;103039.22;5014909;28;20037;-69
2022/05/08 09:25:49;;;;;;;7.70;1.40;;;;;;;30.67;19.79;103031.56;5030458;28;20508;-69
2022/05/08 09:28:19;;;;;;;;;;;;;;;32.47;17.44;103021.69;5033322;28;20500;-70
2022/05/08 09:30:57;;;;;;;4.40;1.45;;;;;;;30.75;18.47;103023.84;5047478;28;19923;-69
2022/05/08 09:33:26;;;;;;;6.38;1.55;;;;;;;31.21;18.92;103025.50;5030785;28;20025;-69
2022/05/08 09:35:52;;;;;;;4.20;1.33;;;;;;;29.31;20.21;103033.16;5030730;28;20025;-70
2022/05/08 09:38:17;;;;;;;7.55;1.50;;;;;;;31.61;18.70;103025.66;5032432;28;20454;-69
2022/05/08 09:40:45;;;;;;;8.73;1.98;;;;;;;32.41;18.42;103021.25;5046644;28;20025;-69
2022/05/08 09:43:30;;;;;;;7.85;1.73;;;;;;;32.87;17.46;103017.19;5031004;28;20049;-69
2022/05/08 09:45:59;;;;;;;4.47;1.40;;;;;;;31.76;19.39;103015.66;5031075;28;20496;-69
2022/05/08 09:48:26;;;;;;;5.63;1.42;;;;;;;31.94;18.29;103024.38;5031061;28;20040;-69
2022/05/08 09:51:09;;;;;;;8.52;1.50;;;;;;;31.86;18.76;103026.75;5031836;28;20033;-69
2022/05/08 09:53:37;;;;;;;7.75;1.42;;;;;;;31.23;18.98;103028.97;5029916;28;20536;-69
2022/05/08 09:56:07;;;;;;;10.63;1.65;;;;;;;28.86;20.67;103022.06;5030629;28;20022;-69
2022/05/08 09:58:33;;;;;;;5.97;1.30;;;;;;;30.53;19.63;103024.31;5030250;28;20021;-69
2022/05/08 10:00:59;;;;;;;9.48;1.73;;;;;;;30.83;20.08;103015.28;5029820;28;20056;-69
2022/05/08 10:03:26;;;;;;;7.18;1.90;;;;;;;31.03;18.75;103016.75;5031943;28;20495;-69
2022/05/08 10:05:52;;;;;;;4.90;1.73;;;;;;;28.83;20.86;103020.41;5031455;28;20489;-69
2022/05/08 10:08:20;;;;;;;9.32;2.13;;;;;;;30.71;19.47;103016.06;5029754;28;20029;-69
2022/05/08 10:14:04;;;;;;;7.93;1.35;;;;;;;30.92;19.21;103009.28;5031040;28;20475;-69
2022/05/08 10:16:41;;;;;;;9.23;1.70;;;;;;;31.71;19.07;103011.53;5030133;28;20025;-69
2022/05/08 10:19:22;;;;;;;5.22;1.40;;;;;;;30.34;19.78;103018.28;5031687;28;20083;-69
2022/05/08 10:22:03;;;;;;;4.32;1.58;;;;;;;30.31;19.33;103013.94;5029200;28;20031;-69
2022/05/08 10:24:51;;;;;;;4.80;1.15;;;;;;;31.24;19.00;103009.13;5031514;28;20103;-69
2022/05/08 10:27:28;;;;;;;7.03;1.60;;;;;;;32.39;18.47;103001.56;5030007;28;20030;-70
2022/05/08 10:29:53;;;;;;;5.30;1.08;;;;;;;33.18;17.38;103009.53;5030289;28;20089;-70
2022/05/08 10:32:34;;;;;;;7.00;1.55;;;;;;;32.53;18.33;102998.75;5031509;28;20057;-70
2022/05/08 10:35:09;;;;;;;4.22;1.20;;;;;;;32.16;18.22;102990.47;5029334;28;20112;-70
2022/05/08 10:37:39;;;;;;;4.53;1.30;;;;;;;31.86;18.64;102994.31;5029768;28;20045;-70
2022/05/08 10:40:28;;;;;;;7.70;1.45;;;;;;;32.75;16.40;102991.84;5030128;28;20408;-70
2022/05/08 10:42:57;;;;;;;8.18;1.50;;;;;;;30.10;19.81;102997.19;5024846;28;20053;-69
2022/05/08 10:45:32;;;;;;;5.22;1.05;;;;;;;30.40;22.71;102996.31;5030087;28;20028;-69
2022/05/08 10:48:14;;;;;;;6.70;1.40;;;;;;;30.12;21.69;102998.84;5029494;28;20029;-69
2022/05/08 10:50:48;;;;;;;3.63;1.20;;;;;;;29.76;20.26;102996.47;5029828;28;20025;-71
2022/05/08 10:53:20;;;;;;;4.15;1.13;;;;;;;29.94;21.59;102995.41;5029733;28;20080;-69
2022/05/08 10:55:46;;;;;;;;;;;;;;;31.06;19.17;102999.50;5029482;28;20493;-68
2022/05/08 10:58:11;;;;;;;4.47;1.45;;;;;;;30.08;19.86;103001.81;5029962;28;19920;-69
2022/05/08 11:00:36;;;;;;;6.32;1.45;;;;;;;31.78;20.33;102997.50;5029299;28;20417;-69
2022/05/08 11:03:02;;;;;;;5.13;0.95;;;;;;;32.13;19.29;102996.06;5029678;28;20465;-69
2022/05/08 11:05:37;;;;;;;3.72;1.45;;;;;;;32.05;18.88;102999.28;5029312;28;20079;-70
2022/05/08 11:08:03;;;;;;;3.92;1.10;;;;;;;29.68;19.51;102998.75;5029211;28;20036;-70
2022/05/08 11:10:30;;;;;;;6.28;1.20;;;;;;;28.48;21.56;103003.41;5028748;28;20099;-69
2022/05/08 11:13:00;;;;;;;6.68;1.25;;;;;;;29.26;20.75;103009.16;5029147;28;20026;-69
2022/05/08 11:15:56;;;;;;;6.70;1.20;;;;;;;30.28;21.32;102997.91;5029389;28;20120;-69
2022/05/08 11:18:24;;;;;;;7.38;1.30;;;;;;;29.32;21.26;102998.03;5028318;28;20041;-69
2022/05/08 11:20:59;;;;;;;7.38;1.60;;;;;;;29.53;20.97;102998.66;5028717;28;20030;-69
2022/05/08 11:23:26;;;;;;;8.30;1.27;;;;;;;31.38;18.85;102988.44;5045625;28;20060;-69
2022/05/08 11:25:55;;;;;;;4.50;1.30;;;;;;;31.48;19.97;102989.56;5027927;28;20028;-69
2022/05/08 11:28:22;;;;;;;5.90;1.50;;;;;;;31.34;19.19;102986.91;5029531;28;20021;-70
2022/05/08 11:30:50;;;;;;;4.88;1.20;;;;;;;31.69;19.85;102997.25;5029972;28;20097;-69
2022/05/08 11:36:08;;;;;;;3.55;1.23;;;;;;;30.96;21.13;102991.94;5030485;28;20041;-70
2022/05/08 11:38:52;;;;;;;5.90;1.52;;;;;;;31.50;18.51;102984.06;5028189;28;20474;-69
2022/05/08 11:41:21;;;;;;;4.68;1.27;;;;;;;31.31;19.25;102971.75;5028995;28;20053;-69
2022/05/08 11:43:50;;;;;;;3.55;0.90;;;;;;;30.63;19.62;102981.44;5029596;28;20490;-69
2022/05/08 11:46:18;;;;;;;5.10;1.45;;;;;;;29.07;20.39;102977.84;5028268;28;20355;-69
2022/05/08 11:48:47;;;;;;;9.45;1.52;;;;;;;28.38;21.88;102970.75;5030045;28;20482;-70
2022/05/08 11:51:21;;;;;;;2.25;1.10;;;;;;;28.21;21.71;102977.88;5029062;28;20036;-69
2022/05/08 11:53:49;;;;;;;7.00;1.38;;;;;;;31.35;19.45;102967.88;5027305;28;20021;-69